createdAt,value
2018-02-23T00:00:25.825Z,81.60
2018-02-23T00:01:25.837Z,81.60
2018-02-23T00:02:25.837Z,81.60
2018-02-23T00:03:25.845Z,81.88
2018-02-23T00:04:25.856Z,81.32
2018-02-23T00:05:25.864Z,81.98
2018-02-23T00:06:25.877Z,82.07
2018-02-23T00:07:25.883Z,82.26
2018-02-23T00:08:25.894Z,82.07
2018-02-23T00:09:25.902Z,82.35
2018-02-23T00:10:25.912Z,82.35
2018-02-23T00:11:25.922Z,82.26
2018-02-23T00:12:25.937Z,82.54
2018-02-23T00:13:25.939Z,82.45
2018-02-23T00:14:25.950Z,83.11
2018-02-23T00:15:25.963Z,82.83
2018-02-23T00:16:25.976Z,82.45
2018-02-23T00:17:25.977Z,82.17
2018-02-23T00:18:25.989Z,82.45
2018-02-23T00:19:26.003Z,82.54
2018-02-23T00:20:26.113Z,82.07
2018-02-23T00:21:26.024Z,82.31
2018-02-23T00:22:26.028Z,82.64
2018-02-23T00:23:26.038Z,82.83
2018-02-23T00:24:26.046Z,82.92
2018-02-23T00:25:26.058Z,82.64
2018-02-23T00:26:26.086Z,82.73
2018-02-23T00:27:26.077Z,83.02
2018-02-23T00:28:26.083Z,83.40
2018-02-23T00:29:26.093Z,83.11
2018-02-23T00:30:26.104Z,83.11
2018-02-23T00:31:26.113Z,83.40
2018-02-23T00:32:26.127Z,83.11
2018-02-23T00:33:26.134Z,83.59
2018-02-23T00:34:26.146Z,83.30
2018-02-23T00:35:26.151Z,83.11
2018-02-23T00:36:26.160Z,83.49
2018-02-23T00:37:26.198Z,83.02
2018-02-23T00:38:26.180Z,83.59
2018-02-23T00:39:26.191Z,83.49
2018-02-23T00:40:26.221Z,83.68
2018-02-23T00:41:26.207Z,84.44
2018-02-23T00:42:26.218Z,84.34
2018-02-23T00:43:26.228Z,84.16
2018-02-23T00:44:26.238Z,84.25
2018-02-23T00:45:26.249Z,84.25
2018-02-23T00:46:26.257Z,84.25
2018-02-23T00:47:26.268Z,84.53
2018-02-23T00:48:26.276Z,84.53
2018-02-23T00:49:26.285Z,84.44
2018-02-23T00:50:26.294Z,84.44
2018-02-23T00:51:26.307Z,84.72
2018-02-23T00:52:26.317Z,84.72
2018-02-23T00:53:26.326Z,84.44
2018-02-23T00:54:26.334Z,84.91
2018-02-23T00:55:26.358Z,84.63
2018-02-23T00:56:26.361Z,84.72
2018-02-23T00:57:26.365Z,84.44
2018-02-23T00:58:26.377Z,84.63
2018-02-23T00:59:26.383Z,84.72
2018-02-23T01:00:26.391Z,84.53
2018-02-23T01:01:26.414Z,84.34
2018-02-23T01:02:26.410Z,84.44
2018-02-23T01:03:26.421Z,84.63
2018-02-23T01:04:26.436Z,85.10
2018-02-23T01:05:26.478Z,84.72
2018-02-23T01:06:26.450Z,84.81
2018-02-23T01:07:26.458Z,84.63
2018-02-23T01:08:26.469Z,84.91
2018-02-23T01:09:26.478Z,85.19
2018-02-23T01:10:26.492Z,84.91
2018-02-23T01:11:26.498Z,85.57
2018-02-23T01:12:26.507Z,85.85
2018-02-23T01:13:26.514Z,85.57
2018-02-23T01:14:26.525Z,85.28
2018-02-23T01:15:26.535Z,85.24
2018-02-23T01:16:26.549Z,85.47
2018-02-23T01:17:26.554Z,85.57
2018-02-23T01:18:26.564Z,85.47
2018-02-23T01:19:26.574Z,85.76
2018-02-23T01:20:26.583Z,85.57
2018-02-23T01:21:26.597Z,85.52
2018-02-23T01:22:26.603Z,85.76
2018-02-23T01:23:26.618Z,85.76
2018-02-23T01:24:26.621Z,86.33
2018-02-23T01:25:26.630Z,86.23
2018-02-23T01:26:26.644Z,86.42
2018-02-23T01:27:26.655Z,86.61
2018-02-23T01:28:26.660Z,86.61
2018-02-23T01:29:26.668Z,86.61
2018-02-23T01:30:26.684Z,86.52
2018-02-23T01:31:26.687Z,86.52
2018-02-23T01:32:26.700Z,86.61
2018-02-23T01:33:26.708Z,86.33
2018-02-23T01:34:26.716Z,87.08
2018-02-23T01:35:26.729Z,86.90
2018-02-23T01:36:26.739Z,86.90
2018-02-23T01:37:26.746Z,86.99
2018-02-23T01:38:26.755Z,86.33
2018-02-23T01:39:26.766Z,86.80
2018-02-23T01:40:26.777Z,86.42
2018-02-23T01:41:26.785Z,87.08
2018-02-23T01:42:26.796Z,87.08
2018-02-23T01:43:26.804Z,87.46
2018-02-23T01:44:26.913Z,86.80
2018-02-23T01:45:26.827Z,86.90
2018-02-23T01:46:26.834Z,87.18
2018-02-23T01:47:26.895Z,87.51
2018-02-23T01:48:26.851Z,86.85
2018-02-23T01:49:26.862Z,86.52
2018-02-23T01:50:26.872Z,87.27
2018-02-23T01:51:26.880Z,87.08
2018-02-23T01:52:26.891Z,86.94
2018-02-23T01:53:26.905Z,87.13
2018-02-23T01:54:26.908Z,86.80
2018-02-23T01:55:26.920Z,86.94
2018-02-23T01:56:26.932Z,87.04
2018-02-23T01:57:26.940Z,87.13
2018-02-23T01:58:26.949Z,87.79
2018-02-23T01:59:26.957Z,86.75
2018-02-23T02:00:26.968Z,87.13
2018-02-23T02:01:26.982Z,87.41
2018-02-23T02:02:26.986Z,87.60
2018-02-23T02:03:26.997Z,87.51
2018-02-23T02:04:27.005Z,87.65
2018-02-23T02:05:27.015Z,87.65
2018-02-23T02:06:27.025Z,87.74
2018-02-23T02:07:27.037Z,87.55
2018-02-23T02:08:27.044Z,88.31
2018-02-23T02:09:27.056Z,88.41
2018-02-23T02:10:27.063Z,88.31
2018-02-23T02:11:27.075Z,88.50
2018-02-23T02:12:27.085Z,88.12
2018-02-23T02:13:27.092Z,88.26
2018-02-23T02:14:27.106Z,87.88
2018-02-23T02:15:27.112Z,88.36
2018-02-23T02:16:27.125Z,88.26
2018-02-23T02:17:27.131Z,88.26
2018-02-23T02:18:27.140Z,88.07
2018-02-23T02:19:27.155Z,88.07
2018-02-23T02:20:27.167Z,88.45
2018-02-23T02:21:27.169Z,88.45
2018-02-23T02:22:27.180Z,87.98
2018-02-23T02:23:27.192Z,88.17
2018-02-23T02:24:27.199Z,87.98
2018-02-23T02:25:27.213Z,88.17
2018-02-23T02:26:27.222Z,88.17
2018-02-23T02:27:27.227Z,88.55
2018-02-23T02:28:27.238Z,88.36
2018-02-23T02:29:27.250Z,88.17
2018-02-23T02:30:27.255Z,88.69
2018-02-23T02:31:27.266Z,88.88
2018-02-23T02:32:27.276Z,89.17
2018-02-23T02:33:27.290Z,89.02
2018-02-23T02:34:27.301Z,89.21
2018-02-23T02:35:27.310Z,89.21
2018-02-23T02:36:27.315Z,88.45
2018-02-23T02:37:27.354Z,88.55
2018-02-23T02:38:27.340Z,88.74
2018-02-23T02:39:27.355Z,88.83
2018-02-23T02:40:27.363Z,88.45
2018-02-23T02:41:27.361Z,88.64
2018-02-23T02:42:27.376Z,89.40
2018-02-23T02:43:27.382Z,89.21
2018-02-23T02:44:27.397Z,88.83
2018-02-23T02:45:27.399Z,89.21
2018-02-23T02:46:27.412Z,89.21
2018-02-23T02:47:27.420Z,89.50
2018-02-23T02:48:27.502Z,89.40
2018-02-23T02:49:27.438Z,89.12
2018-02-23T02:50:27.448Z,89.31
2018-02-23T02:51:27.459Z,89.40
2018-02-23T02:52:27.468Z,89.40
2018-02-23T02:53:27.476Z,89.40
2018-02-23T02:54:27.488Z,89.40
2018-02-23T02:55:27.510Z,89.40
2018-02-23T02:56:27.507Z,89.87
2018-02-23T02:57:27.515Z,89.69
2018-02-23T02:58:27.527Z,89.26
2018-02-23T02:59:27.535Z,89.92
2018-02-23T03:00:27.543Z,90.16
2018-02-23T03:01:27.553Z,90.58
2018-02-23T03:02:27.566Z,90.49
2018-02-23T03:03:27.572Z,90.68
2018-02-23T03:04:27.584Z,90.58
2018-02-23T03:05:27.593Z,90.58
2018-02-23T03:06:27.603Z,90.39
2018-02-23T03:07:27.615Z,90.68
2018-02-23T03:08:27.632Z,90.49
2018-02-23T03:09:27.629Z,90.39
2018-02-23T03:10:27.638Z,90.49
2018-02-23T03:11:27.655Z,90.49
2018-02-23T03:12:27.658Z,90.49
2018-02-23T03:13:27.732Z,90.49
2018-02-23T03:14:27.679Z,90.58
2018-02-23T03:15:27.691Z,90.86
2018-02-23T03:16:27.696Z,91.34
2018-02-23T03:17:27.706Z,91.15
2018-02-23T03:18:27.714Z,91.15
2018-02-23T03:19:27.726Z,90.86
2018-02-23T03:20:27.742Z,91.15
2018-02-23T03:21:27.748Z,91.05
2018-02-23T03:22:27.763Z,91.05
2018-02-23T03:23:27.766Z,90.96
2018-02-23T03:24:27.774Z,90.77
2018-02-23T03:25:27.783Z,91.05
2018-02-23T03:26:27.791Z,91.34
2018-02-23T03:27:27.806Z,91.34
2018-02-23T03:28:27.816Z,91.15
2018-02-23T03:29:27.821Z,91.81
2018-02-23T03:30:27.835Z,91.62
2018-02-23T03:31:27.841Z,91.53
2018-02-23T03:32:27.850Z,91.81
2018-02-23T03:33:27.865Z,92.00
2018-02-23T03:34:27.906Z,92.19
2018-02-23T03:35:27.879Z,92.19
2018-02-23T03:36:27.891Z,92.10
2018-02-23T03:37:27.894Z,92.38
2018-02-23T03:38:27.907Z,92.29
2018-02-23T03:39:27.913Z,92.10
2018-02-23T03:40:27.930Z,92.57
2018-02-23T03:41:27.932Z,92.10
2018-02-23T03:42:27.944Z,92.66
2018-02-23T03:43:28.052Z,92.38
2018-02-23T03:44:27.965Z,92.38
2018-02-23T03:45:27.973Z,92.47
2018-02-23T03:46:27.996Z,92.38
2018-02-23T03:47:27.992Z,92.85
2018-02-23T03:48:28.013Z,92.76
2018-02-23T03:49:28.012Z,92.76
2018-02-23T03:50:28.018Z,93.13
2018-02-23T03:51:28.028Z,92.94
2018-02-23T03:52:28.037Z,92.76
2018-02-23T03:53:28.054Z,93.61
2018-02-23T03:54:28.058Z,93.51
2018-02-23T03:55:28.064Z,93.23
2018-02-23T03:56:28.073Z,93.13
2018-02-23T03:57:28.089Z,93.13
2018-02-23T03:58:28.092Z,93.80
2018-02-23T03:59:28.201Z,93.61
2018-02-23T04:00:28.110Z,93.23
2018-02-23T04:01:28.122Z,93.61
2018-02-23T04:02:28.131Z,93.42
2018-02-23T04:03:28.138Z,93.23
2018-02-23T04:04:28.152Z,93.23
2018-02-23T04:05:28.156Z,93.23
2018-02-23T04:06:28.169Z,93.32
2018-02-23T04:07:28.177Z,93.51
2018-02-23T04:08:28.192Z,93.51
2018-02-23T04:09:28.193Z,93.80
2018-02-23T04:10:28.205Z,93.89
2018-02-23T04:11:28.218Z,93.80
2018-02-23T04:12:28.224Z,93.99
2018-02-23T04:13:28.231Z,93.80
2018-02-23T04:14:28.239Z,94.46
2018-02-23T04:15:28.275Z,94.27
2018-02-23T04:16:28.260Z,94.37
2018-02-23T04:17:28.277Z,94.18
2018-02-23T04:18:28.274Z,94.18
2018-02-23T04:19:28.287Z,94.27
2018-02-23T04:20:28.296Z,94.37
2018-02-23T04:21:28.303Z,93.70
2018-02-23T04:22:28.312Z,94.37
2018-02-23T04:23:28.326Z,94.18
2018-02-23T04:24:28.333Z,94.27
2018-02-23T04:25:28.345Z,93.99
2018-02-23T04:26:28.354Z,94.37
2018-02-23T04:27:28.366Z,94.27
2018-02-23T04:28:28.366Z,94.37
2018-02-23T04:29:28.378Z,94.46
2018-02-23T04:30:28.397Z,94.46
2018-02-23T04:31:28.394Z,94.93
2018-02-23T04:32:28.405Z,94.65
2018-02-23T04:33:28.411Z,94.84
2018-02-23T04:34:28.424Z,94.65
2018-02-23T04:35:28.430Z,94.65
2018-02-23T04:36:28.446Z,94.74
2018-02-23T04:37:28.448Z,94.93
2018-02-23T04:38:28.460Z,95.03
2018-02-23T04:39:28.469Z,94.46
2018-02-23T04:40:28.476Z,94.46
2018-02-23T04:41:28.493Z,94.18
2018-02-23T04:42:28.497Z,94.46
2018-02-23T04:43:28.504Z,94.08
2018-02-23T04:44:28.522Z,94.18
2018-02-23T04:45:28.523Z,93.99
2018-02-23T04:46:28.535Z,93.80
2018-02-23T04:47:28.541Z,93.42
2018-02-23T04:48:28.551Z,93.42
2018-02-23T04:49:28.555Z,93.80
2018-02-23T04:50:28.590Z,93.99
2018-02-23T04:51:28.589Z,94.18
2018-02-23T04:52:28.592Z,94.46
2018-02-23T04:53:28.596Z,94.46
2018-02-23T04:54:28.604Z,93.99
2018-02-23T04:55:28.628Z,93.99
2018-02-23T04:56:28.643Z,93.99
2018-02-23T04:57:28.631Z,94.41
2018-02-23T04:58:28.638Z,94.18
2018-02-23T04:59:28.646Z,94.70
2018-02-23T05:00:28.655Z,94.41
2018-02-23T05:01:28.664Z,94.89
2018-02-23T05:02:28.733Z,94.89
2018-02-23T05:03:28.684Z,94.60
2018-02-23T05:04:28.692Z,94.79
2018-02-23T05:05:28.703Z,94.89
2018-02-23T05:06:28.723Z,94.41
2018-02-23T05:07:28.721Z,94.60
2018-02-23T05:08:28.730Z,94.22
2018-02-23T05:09:28.737Z,94.32
2018-02-23T05:10:28.751Z,94.22
2018-02-23T05:11:28.759Z,94.32
2018-02-23T05:12:28.771Z,94.22
2018-02-23T05:13:28.774Z,94.32
2018-02-23T05:14:28.783Z,94.41
2018-02-23T05:15:28.798Z,94.89
2018-02-23T05:16:28.806Z,94.60
2018-02-23T05:17:28.813Z,94.41
2018-02-23T05:18:28.817Z,94.32
2018-02-23T05:19:28.829Z,94.13
2018-02-23T05:20:28.835Z,94.32
2018-02-23T05:21:28.854Z,94.22
2018-02-23T05:22:28.876Z,94.51
2018-02-23T05:23:28.861Z,94.51
2018-02-23T05:24:28.881Z,94.32
2018-02-23T05:25:28.883Z,94.51
2018-02-23T05:26:28.888Z,94.32
2018-02-23T05:27:28.903Z,94.13
2018-02-23T05:28:28.913Z,94.51
2018-02-23T05:29:28.919Z,94.41
2018-02-23T05:30:28.928Z,94.89
2018-02-23T05:31:28.938Z,94.89
2018-02-23T05:32:28.941Z,94.70
2018-02-23T05:33:28.947Z,94.60
2018-02-23T05:34:28.957Z,94.41
2018-02-23T05:35:28.968Z,94.79
2018-02-23T05:36:29.076Z,94.13
2018-02-23T05:37:28.984Z,94.41
2018-02-23T05:38:28.997Z,94.32
2018-02-23T05:39:29.003Z,94.51
2018-02-23T05:40:29.016Z,94.03
2018-02-23T05:41:29.018Z,94.41
2018-02-23T05:42:29.026Z,94.22
2018-02-23T05:43:29.037Z,94.22
2018-02-23T05:44:29.049Z,94.41
2018-02-23T05:45:29.051Z,94.13
2018-02-23T05:46:29.064Z,94.13
2018-02-23T05:47:29.073Z,94.32
2018-02-23T05:48:29.083Z,94.41
2018-02-23T05:49:29.090Z,94.03
2018-02-23T05:50:29.097Z,93.94
2018-02-23T05:51:29.124Z,93.84
2018-02-23T05:52:29.139Z,93.94
2018-02-23T05:53:29.125Z,93.75
2018-02-23T05:54:29.130Z,93.18
2018-02-23T05:55:29.139Z,93.28
2018-02-23T05:56:29.197Z,93.47
2018-02-23T05:57:29.158Z,93.28
2018-02-23T05:58:29.169Z,92.71
2018-02-23T05:59:29.178Z,92.52
2018-02-23T06:00:29.194Z,92.99
2018-02-23T06:01:29.196Z,92.71
2018-02-23T06:02:29.222Z,92.61
2018-02-23T06:03:29.234Z,92.71
2018-02-23T06:04:29.220Z,92.61
2018-02-23T06:05:29.249Z,93.18
2018-02-23T06:06:29.241Z,92.61
2018-02-23T06:07:29.250Z,92.52
2018-02-23T06:08:29.254Z,92.71
2018-02-23T06:09:29.269Z,92.80
2018-02-23T06:10:29.277Z,92.33
2018-02-23T06:11:29.280Z,92.14
2018-02-23T06:12:29.291Z,92.33
2018-02-23T06:13:29.299Z,92.33
2018-02-23T06:14:29.346Z,92.24
2018-02-23T06:15:29.319Z,92.61
2018-02-23T06:16:29.339Z,92.52
2018-02-23T06:17:29.357Z,92.61
2018-02-23T06:18:29.347Z,91.58
2018-02-23T06:19:29.408Z,92.14
2018-02-23T06:20:29.359Z,91.67
2018-02-23T06:21:29.398Z,91.20
2018-02-23T06:22:29.391Z,91.58
2018-02-23T06:23:29.383Z,91.29
2018-02-23T06:24:29.434Z,91.29
2018-02-23T06:25:29.430Z,91.39
2018-02-23T06:26:29.412Z,91.01
2018-02-23T06:27:29.433Z,90.91
2018-02-23T06:28:29.431Z,91.01
2018-02-23T06:29:29.435Z,91.10
2018-02-23T06:30:29.454Z,90.73
2018-02-23T06:31:29.454Z,90.82
2018-02-23T06:32:29.476Z,90.54
2018-02-23T06:33:29.471Z,90.63
2018-02-23T06:34:29.478Z,90.25
2018-02-23T06:35:29.487Z,90.63
2018-02-23T06:36:29.518Z,90.16
2018-02-23T06:37:29.507Z,89.78
2018-02-23T06:38:29.526Z,89.97
2018-02-23T06:39:29.625Z,90.35
2018-02-23T06:40:29.536Z,90.25
2018-02-23T06:41:29.540Z,89.40
2018-02-23T06:42:29.549Z,89.87
2018-02-23T06:43:29.572Z,89.03
2018-02-23T06:44:29.570Z,89.31
2018-02-23T06:45:29.579Z,88.93
2018-02-23T06:46:29.587Z,89.31
2018-02-23T06:47:29.598Z,89.31
2018-02-23T06:48:29.616Z,89.03
2018-02-23T06:49:29.610Z,89.03
2018-02-23T06:50:29.620Z,89.03
2018-02-23T06:51:29.629Z,88.93
2018-02-23T06:52:29.663Z,88.93
2018-02-23T06:53:29.658Z,89.12
2018-02-23T06:54:29.670Z,89.12
2018-02-23T06:55:29.970Z,88.84
2018-02-23T06:56:29.693Z,88.93
2018-02-23T06:57:29.681Z,88.74
2018-02-23T06:58:29.734Z,89.03
2018-02-23T06:59:29.728Z,89.12
2018-02-23T07:00:29.707Z,88.17
2018-02-23T07:01:29.745Z,88.46
2018-02-23T07:02:29.747Z,88.46
2018-02-23T07:03:29.774Z,87.79
2018-02-23T07:04:29.740Z,87.98
2018-02-23T07:05:29.814Z,87.98
2018-02-23T07:06:29.756Z,87.70
2018-02-23T07:07:29.771Z,87.42
2018-02-23T07:08:29.778Z,87.42
2018-02-23T07:09:29.789Z,87.23
2018-02-23T07:10:29.793Z,87.04
2018-02-23T07:11:29.810Z,86.94
2018-02-23T07:12:29.812Z,87.13
2018-02-23T07:13:29.844Z,87.13
2018-02-23T07:14:29.815Z,87.23
2018-02-23T07:15:29.845Z,86.66
2018-02-23T07:16:29.856Z,86.47
2018-02-23T07:17:29.844Z,87.32
2018-02-23T07:18:29.849Z,87.89
2018-02-23T07:19:29.866Z,87.18
2018-02-23T07:20:29.868Z,85.57
2018-02-23T07:21:29.877Z,85.15
2018-02-23T07:22:29.885Z,85.05
2018-02-23T07:23:29.896Z,85.24
2018-02-23T07:24:29.903Z,84.86
2018-02-23T07:25:30.059Z,85.34
2018-02-23T07:26:29.932Z,85.05
2018-02-23T07:27:29.927Z,85.72
2018-02-23T07:28:29.937Z,85.05
2018-02-23T07:29:29.945Z,85.05
2018-02-23T07:30:29.953Z,85.34
2018-02-23T07:31:29.966Z,84.86
2018-02-23T07:32:29.975Z,85.24
2018-02-23T07:33:29.979Z,85.15
2018-02-23T07:34:29.987Z,84.77
2018-02-23T07:35:29.997Z,84.86
2018-02-23T07:36:30.010Z,84.86
2018-02-23T07:37:30.015Z,84.68
2018-02-23T07:38:30.032Z,85.05
2018-02-23T07:39:30.036Z,84.58
2018-02-23T07:40:30.040Z,84.39
2018-02-23T07:41:30.048Z,84.49
2018-02-23T07:42:30.057Z,84.49
2018-02-23T07:43:30.070Z,83.54
2018-02-23T07:44:30.076Z,83.26
2018-02-23T07:45:30.084Z,83.40
2018-02-23T07:46:30.094Z,83.73
2018-02-23T07:47:30.100Z,83.30
2018-02-23T07:48:30.109Z,82.69
2018-02-23T07:49:30.118Z,82.83
2018-02-23T07:50:30.125Z,82.73
2018-02-23T07:51:30.151Z,82.35
2018-02-23T07:52:30.147Z,81.79
2018-02-23T07:53:30.152Z,81.13
2018-02-23T07:54:30.168Z,80.75
2018-02-23T07:55:30.168Z,80.56
2018-02-23T07:56:30.175Z,80.08
2018-02-23T07:57:30.186Z,79.71
2018-02-23T07:58:30.194Z,79.05
2018-02-23T07:59:30.218Z,79.33
2018-02-23T08:00:30.211Z,78.48
2018-02-23T08:01:30.219Z,77.34
2018-02-23T08:02:30.263Z,77.53
2018-02-23T08:03:30.468Z,77.25
2018-02-23T08:04:30.247Z,76.68
2018-02-23T08:05:30.256Z,76.31
2018-02-23T08:06:30.466Z,75.83
2018-02-23T08:07:30.272Z,75.17
2018-02-23T08:08:30.307Z,75.07
2018-02-23T08:09:30.292Z,74.51
2018-02-23T08:10:30.300Z,74.22
2018-02-23T08:11:30.310Z,73.75
2018-02-23T08:12:30.316Z,73.18
2018-02-23T08:13:30.327Z,73.28
2018-02-23T08:14:30.334Z,73.28
2018-02-23T08:15:30.348Z,72.90
2018-02-23T08:16:30.350Z,72.80
2018-02-23T08:17:30.358Z,72.43
2018-02-23T08:18:30.371Z,72.33
2018-02-23T08:19:30.376Z,71.67
2018-02-23T08:20:30.385Z,71.77
2018-02-23T08:21:30.405Z,71.01
2018-02-23T08:22:30.402Z,70.25
2018-02-23T08:23:31.253Z,69.78
2018-02-23T08:24:30.420Z,69.31
2018-02-23T08:25:30.430Z,69.21
2018-02-23T08:27:30.450Z,69.21
2018-02-23T08:28:30.505Z,69.31
2018-02-23T08:29:30.495Z,68.84
2018-02-23T08:30:30.479Z,68.17
2018-02-23T08:31:30.502Z,67.22
2018-02-23T08:32:30.497Z,67.13
2018-02-23T08:33:30.801Z,67.89
2018-02-23T08:34:30.826Z,67.03
2018-02-23T08:35:30.522Z,66.75
2018-02-23T08:36:30.526Z,67.03
2018-02-23T08:37:30.535Z,67.03
2018-02-23T08:38:30.554Z,67.32
2018-02-23T08:39:30.557Z,66.85
2018-02-23T08:40:30.566Z,66.85
2018-02-23T08:41:30.577Z,66.75
2018-02-23T08:42:30.583Z,66.66
2018-02-23T08:43:30.595Z,66.94
2018-02-23T08:44:30.599Z,66.47
2018-02-23T08:45:30.611Z,66.56
2018-02-23T08:46:30.619Z,66.94
2018-02-23T08:47:30.670Z,66.85
2018-02-23T08:48:30.636Z,66.85
2018-02-23T08:49:30.646Z,66.19
2018-02-23T08:50:30.652Z,66.85
2018-02-23T08:51:30.669Z,67.03
2018-02-23T08:52:30.672Z,67.03
2018-02-23T08:53:30.683Z,66.85
2018-02-23T08:54:30.689Z,67.41
2018-02-23T08:56:30.707Z,66.79
2018-02-23T08:57:31.376Z,66.98
2018-02-23T08:58:30.832Z,66.94
2018-02-23T08:59:30.898Z,66.75
2018-02-23T09:00:30.747Z,67.36
2018-02-23T09:01:30.754Z,67.26
2018-02-23T09:02:30.762Z,67.07
2018-02-23T09:03:30.774Z,66.79
2018-02-23T09:04:30.794Z,66.98
2018-02-23T09:05:30.796Z,67.26
2018-02-23T09:06:30.803Z,67.07
2018-02-23T09:07:30.835Z,67.26
2018-02-23T09:08:30.821Z,66.88
2018-02-23T09:09:30.826Z,66.69
2018-02-23T09:10:30.839Z,65.94
2018-02-23T09:11:30.851Z,66.31
2018-02-23T09:12:30.863Z,66.41
2018-02-23T09:13:30.864Z,65.94
2018-02-23T09:14:30.875Z,66.60
2018-02-23T09:15:30.892Z,66.69
2018-02-23T09:16:30.909Z,66.69
2018-02-23T09:17:30.911Z,66.69
2018-02-23T09:18:30.913Z,66.69
2018-02-23T09:19:30.926Z,66.79
2018-02-23T09:20:30.939Z,66.98
2018-02-23T09:21:30.997Z,66.98
2018-02-23T09:22:31.035Z,66.50
2018-02-23T09:23:30.984Z,66.22
2018-02-23T09:24:30.976Z,66.03
2018-02-23T09:25:30.986Z,66.22
2018-02-23T09:26:30.990Z,66.98
2018-02-23T09:27:31.021Z,66.79
2018-02-23T09:28:31.009Z,66.79
2018-02-23T09:29:31.021Z,66.50
2018-02-23T09:30:31.034Z,66.79
2018-02-23T09:31:31.076Z,66.79
2018-02-23T09:32:31.515Z,66.22
2018-02-23T09:33:31.061Z,66.22
2018-02-23T09:34:31.066Z,66.60
2018-02-23T09:35:31.076Z,66.50
2018-02-23T09:36:31.084Z,66.41
2018-02-23T09:37:31.101Z,65.94
2018-02-23T09:38:31.105Z,66.41
2018-02-23T09:39:31.117Z,66.60
2018-02-23T09:40:31.161Z,66.69
2018-02-23T09:41:31.136Z,66.88
2018-02-23T09:42:31.140Z,66.98
2018-02-23T09:43:31.153Z,67.36
2018-02-23T09:44:31.165Z,67.17
2018-02-23T09:45:31.171Z,67.26
2018-02-23T09:46:31.180Z,66.50
2018-02-23T09:47:31.489Z,67.17
2018-02-23T09:48:32.091Z,66.88
2018-02-23T09:49:31.567Z,66.98
2018-02-23T09:50:31.212Z,66.13
2018-02-23T09:51:31.228Z,66.22
2018-02-23T09:52:31.250Z,66.50
2018-02-23T09:53:31.240Z,66.50
2018-02-23T09:54:31.254Z,66.03
2018-02-23T09:55:31.274Z,66.31
2018-02-23T09:56:31.286Z,65.84
2018-02-23T09:57:31.283Z,65.66
2018-02-23T09:58:31.288Z,64.80
2018-02-23T09:59:31.338Z,64.80
2018-02-23T10:00:31.324Z,64.33
2018-02-23T10:01:31.317Z,63.67
2018-02-23T10:02:31.325Z,63.85
2018-02-23T10:03:31.338Z,63.29
2018-02-23T10:04:31.350Z,63.20
2018-02-23T10:05:31.382Z,63.01
2018-02-23T10:06:31.361Z,63.10
2018-02-23T10:07:31.385Z,63.01
2018-02-23T10:08:31.379Z,62.63
2018-02-23T10:09:31.398Z,62.15
2018-02-23T10:10:31.425Z,62.15
2018-02-23T10:11:31.410Z,61.87
2018-02-23T10:12:31.415Z,61.77
2018-02-23T10:13:31.428Z,61.49
2018-02-23T10:14:31.485Z,60.96
2018-02-23T10:15:31.456Z,61.24
2018-02-23T10:16:31.696Z,60.48
2018-02-23T10:17:32.185Z,60.77
2018-02-23T10:18:32.289Z,60.48
2018-02-23T10:19:32.174Z,59.91
2018-02-23T10:20:31.558Z,59.72
2018-02-23T10:21:31.500Z,59.91
2018-02-23T10:22:31.514Z,59.16
2018-02-23T10:23:31.531Z,59.16
2018-02-23T10:24:31.549Z,59.16
2018-02-23T10:25:31.538Z,58.68
2018-02-23T10:26:31.568Z,58.59
2018-02-23T10:27:31.558Z,58.49
2018-02-23T10:28:31.581Z,58.62
2018-02-23T10:29:31.623Z,57.57
2018-02-23T10:30:31.595Z,56.82
2018-02-23T10:31:31.611Z,56.22
2018-02-23T10:34:31.619Z,56.60
2018-02-23T10:35:31.630Z,56.53
2018-02-23T10:36:31.641Z,56.53
2018-02-23T10:37:31.670Z,57.01
2018-02-23T10:38:31.663Z,56.34
2018-02-23T10:39:31.675Z,56.72
2018-02-23T10:40:31.681Z,56.25
2018-02-23T10:41:31.695Z,55.77
2018-02-23T10:42:31.703Z,56.06
2018-02-23T10:43:31.719Z,55.30
2018-02-23T10:44:31.720Z,54.90
2018-02-23T10:45:31.734Z,55.30
2018-02-23T10:46:31.743Z,55.21
2018-02-23T10:47:31.750Z,55.11
2018-02-23T10:48:31.759Z,54.93
2018-02-23T10:49:31.773Z,55.02
2018-02-23T10:50:31.779Z,55.02
2018-02-23T10:51:31.795Z,54.55
2018-02-23T10:52:31.799Z,54.35
2018-02-23T10:53:31.814Z,53.97
2018-02-23T10:55:31.955Z,53.97
2018-02-23T10:56:31.836Z,54.35
2018-02-23T10:57:31.847Z,53.88
2018-02-23T10:58:31.856Z,53.88
2018-02-23T10:59:31.867Z,53.59
2018-02-23T11:00:31.889Z,53.69
2018-02-23T11:01:31.888Z,53.88
2018-02-23T11:02:32.034Z,53.41
2018-02-23T11:04:32.332Z,53.50
2018-02-23T11:05:31.939Z,53.13
2018-02-23T11:06:31.937Z,53.03
2018-02-23T11:07:31.950Z,53.41
2018-02-23T11:08:31.956Z,53.31
2018-02-23T11:09:31.970Z,53.22
2018-02-23T11:10:31.975Z,53.41
2018-02-23T11:11:31.985Z,54.07
2018-02-23T11:12:32.039Z,53.88
2018-02-23T11:13:32.107Z,54.07
2018-02-23T11:14:32.020Z,53.78
2018-02-23T11:15:32.029Z,53.78
2018-02-23T11:16:32.036Z,53.22
2018-02-23T11:17:32.046Z,53.13
2018-02-23T11:18:32.060Z,53.41
2018-02-23T11:19:32.065Z,53.59
2018-02-23T11:20:32.079Z,53.97
2018-02-23T11:21:32.136Z,53.97
2018-02-23T11:22:32.111Z,54.16
2018-02-23T11:23:32.105Z,53.78
2018-02-23T11:24:32.117Z,54.26
2018-02-23T11:25:32.124Z,54.35
2018-02-23T11:26:32.134Z,54.07
2018-02-23T11:27:32.151Z,53.97
2018-02-23T11:28:32.160Z,53.69
2018-02-23T11:29:32.186Z,53.41
2018-02-23T11:30:32.235Z,53.03
2018-02-23T11:31:32.188Z,53.59
2018-02-23T11:32:32.204Z,53.50
2018-02-23T11:33:32.262Z,53.22
2018-02-23T11:34:32.313Z,53.22
2018-02-23T11:35:32.668Z,53.03
2018-02-23T11:36:32.236Z,53.13
2018-02-23T11:37:32.247Z,52.75
2018-02-23T11:38:32.277Z,52.94
2018-02-23T11:39:32.265Z,52.94
2018-02-23T11:40:32.280Z,52.75
2018-02-23T11:41:32.288Z,52.65
2018-02-23T11:42:32.302Z,52.65
2018-02-23T11:43:32.310Z,52.75
2018-02-23T11:44:32.317Z,52.75
2018-02-23T11:45:32.336Z,52.56
2018-02-23T11:46:32.338Z,52.94
2018-02-23T11:47:32.548Z,53.13
2018-02-23T11:48:32.441Z,53.50
2018-02-23T11:49:32.379Z,53.03
2018-02-23T11:50:32.379Z,52.56
2018-02-23T11:51:32.387Z,52.37
2018-02-23T11:52:32.397Z,53.13
2018-02-23T11:53:32.405Z,52.65
2018-02-23T11:54:32.416Z,52.37
2018-02-23T11:55:32.429Z,53.22
2018-02-23T11:56:32.440Z,53.13
2018-02-23T11:57:32.562Z,53.22
2018-02-23T11:58:32.458Z,53.31
2018-02-23T11:59:32.472Z,53.22
2018-02-23T12:00:32.483Z,53.13
2018-02-23T12:01:32.487Z,53.44
2018-02-23T12:02:32.621Z,52.84
2018-02-23T12:03:32.530Z,53.13
2018-02-23T12:04:32.706Z,53.44
2018-02-23T12:05:32.529Z,53.15
2018-02-23T12:06:32.538Z,52.68
2018-02-23T12:07:32.550Z,52.18
2018-02-23T12:08:32.564Z,52.75
2018-02-23T12:09:32.571Z,53.13
2018-02-23T12:10:32.583Z,53.34
2018-02-23T12:11:32.605Z,53.25
2018-02-23T12:12:32.600Z,53.44
2018-02-23T12:13:32.626Z,53.13
2018-02-23T12:14:32.622Z,53.72
2018-02-23T12:15:32.632Z,54.00
2018-02-23T12:16:32.641Z,53.25
2018-02-23T12:17:32.650Z,53.53
2018-02-23T12:18:32.664Z,53.25
2018-02-23T12:20:32.686Z,53.44
2018-02-23T12:21:32.691Z,53.53
2018-02-23T12:22:32.702Z,52.48
2018-02-23T12:23:32.716Z,52.58
2018-02-23T12:24:32.723Z,52.77
2018-02-23T12:25:32.733Z,52.20
2018-02-23T12:26:32.743Z,51.92
2018-02-23T12:27:32.783Z,52.29
2018-02-23T12:28:32.768Z,52.01
2018-02-23T12:29:32.789Z,52.11
2018-02-23T12:30:32.796Z,52.11
2018-02-23T12:31:33.512Z,52.48
2018-02-23T12:32:32.870Z,52.11
2018-02-23T12:34:32.930Z,52.11
2018-02-23T12:35:32.850Z,52.68
2018-02-23T12:36:32.850Z,52.39
2018-02-23T12:37:32.862Z,52.29
2018-02-23T12:38:32.871Z,51.82
2018-02-23T12:39:32.882Z,52.01
2018-02-23T12:40:32.889Z,51.73
2018-02-23T12:41:32.899Z,51.73
2018-02-23T12:42:32.943Z,51.82
2018-02-23T12:43:32.919Z,51.82
2018-02-23T12:44:32.983Z,51.92
2018-02-23T12:45:32.943Z,51.45
2018-02-23T12:46:32.953Z,51.73
2018-02-23T12:47:32.964Z,51.73
2018-02-23T12:48:32.978Z,52.11
2018-02-23T12:49:32.982Z,51.82
2018-02-23T12:50:32.994Z,51.54
2018-02-23T12:51:33.495Z,51.92
2018-02-23T12:52:33.028Z,52.01
2018-02-23T12:53:33.288Z,51.64
2018-02-23T12:54:33.033Z,51.73
2018-02-23T12:55:33.198Z,51.35
2018-02-23T12:56:33.290Z,51.47
2018-02-23T12:57:33.064Z,51.64
2018-02-23T12:58:33.082Z,51.16
2018-02-23T12:59:33.101Z,51.82
2018-02-23T13:00:33.105Z,51.45